Hauptseite
METAR-TAF:

METAR-TAF

Flughäfen :

Tachikawa, Japan

Breite: 35-42N, Länge: 139-24E, Höhe: 95 m

Beobachtung

Neuester Wetterbericht von vor 3 Stunden und 23 Minuten, um 10:13 UTC
Wind 1 kt aus unterschiedlichen Richtungen
Temperatur 15°C
Luftfeuchtigkeit 94%
Luftdruck 1017 hPa
Sichtweite: 3000 m
Leicht bewölkt in der Höhe von 500 ft
Aufgelockert bewölkt in der Höhe von 800 ft
Durchbrochene Bewölkung in der Höhe von 1000 ft
Leichtregen, feuchter Dunst

METAR: RJTC 231013Z VRB01KT 3000 -RA BR FEW005 SCT008 BKN010 15/14 Q1017 RMK 1ST005 3ST008 5ST010 A3005

Zeit: 22:36 (13:36 UTC)


TAF: fehlend

Wetterbeobachtungen und Prognosen von mehr als 4000 Flughäfen (METAR und TAF Bericht).

Die verfügbaren Stationen werden durch gelbe und rote Markierungen auf der Karte dargestellt.

Führen Sie die Maus auf sie, um den Namen der Station zu sehen.

Darauf klicken, um die Beobachtung von Wetterbeobachtungen und Prognosen zu sehen.

Um die Karte zu ändern : klicken Sie auf den grünen Tasten mit einem schwarzen Kreuz Zum Vergrößern, auf den grünen Button mit einem Gedankenstrich zu verkleinern, oder auf die grünen Pfeile für benachbarte Karten.


METAR-TAF: